sensor_id;sensor_type;location;lat;lon;timestamp;P1;durP1;ratioP1;P2;durP2;ratioP2
31818;SDS011;18384;48.860;9.188;2023-01-19T00:00:12;14.25;;;7.07;;
31818;SDS011;18384;48.860;9.188;2023-01-19T00:02:42;13.52;;;8.15;;
31818;SDS011;18384;48.860;9.188;2023-01-19T00:05:11;15.20;;;7.68;;
31818;SDS011;18384;48.860;9.188;2023-01-19T00:07:38;15.50;;;7.12;;
31818;SDS011;18384;48.860;9.188;2023-01-19T00:10:06;14.57;;;7.32;;
31818;SDS011;18384;48.860;9.188;2023-01-19T00:12:33;19.80;;;8.90;;
31818;SDS011;18384;48.860;9.188;2023-01-19T00:14:59;19.33;;;8.35;;
31818;SDS011;18384;48.860;9.188;2023-01-19T00:17:26;13.88;;;7.57;;
31818;SDS011;18384;48.860;9.188;2023-01-19T00:19:52;17.85;;;7.97;;
31818;SDS011;18384;48.860;9.188;2023-01-19T00:22:19;15.65;;;8.63;;
31818;SDS011;18384;48.860;9.188;2023-01-19T00:24:45;16.15;;;9.30;;
31818;SDS011;18384;48.860;9.188;2023-01-19T00:29:37;14.07;;;7.47;;
31818;SDS011;18384;48.860;9.188;2023-01-19T00:32:03;15.68;;;7.78;;
31818;SDS011;18384;48.860;9.188;2023-01-19T00:34:30;15.75;;;8.00;;
31818;SDS011;18384;48.860;9.188;2023-01-19T00:37:07;12.65;;;7.97;;
31818;SDS011;18384;48.860;9.188;2023-01-19T00:39:34;15.80;;;7.32;;
31818;SDS011;18384;48.860;9.188;2023-01-19T00:42:00;15.38;;;7.80;;
31818;SDS011;18384;48.860;9.188;2023-01-19T00:44:45;14.10;;;7.60;;
31818;SDS011;18384;48.860;9.188;2023-01-19T00:47:11;13.18;;;7.40;;
31818;SDS011;18384;48.860;9.188;2023-01-19T00:49:37;16.95;;;7.78;;
31818;SDS011;18384;48.860;9.188;2023-01-19T00:52:03;12.13;;;7.15;;
31818;SDS011;18384;48.860;9.188;2023-01-19T00:54:30;13.93;;;8.00;;
31818;SDS011;18384;48.860;9.188;2023-01-19T00:56:56;12.50;;;7.82;;
31818;SDS011;18384;48.860;9.188;2023-01-19T00:59:22;16.20;;;7.62;;
31818;SDS011;18384;48.860;9.188;2023-01-19T01:01:49;12.25;;;7.10;;
31818;SDS011;18384;48.860;9.188;2023-01-19T01:04:16;12.40;;;7.57;;
31818;SDS011;18384;48.860;9.188;2023-01-19T01:06:42;15.07;;;8.68;;
31818;SDS011;18384;48.860;9.188;2023-01-19T01:09:08;12.57;;;7.53;;
31818;SDS011;18384;48.860;9.188;2023-01-19T01:11:38;12.70;;;7.65;;
31818;SDS011;18384;48.860;9.188;2023-01-19T01:14:05;12.65;;;7.87;;
31818;SDS011;18384;48.860;9.188;2023-01-19T01:16:33;14.93;;;8.18;;
31818;SDS011;18384;48.860;9.188;2023-01-19T01:18:59;15.00;;;8.48;;
31818;SDS011;18384;48.860;9.188;2023-01-19T01:21:25;15.65;;;7.95;;
31818;SDS011;18384;48.860;9.188;2023-01-19T01:23:51;17.00;;;8.07;;
31818;SDS011;18384;48.860;9.188;2023-01-19T01:26:17;13.80;;;7.97;;
31818;SDS011;18384;48.860;9.188;2023-01-19T01:28:44;13.05;;;7.97;;
31818;SDS011;18384;48.860;9.188;2023-01-19T01:31:10;12.02;;;7.87;;
31818;SDS011;18384;48.860;9.188;2023-01-19T01:33:36;15.35;;;7.57;;
31818;SDS011;18384;48.860;9.188;2023-01-19T01:36:02;14.07;;;8.43;;
31818;SDS011;18384;48.860;9.188;2023-01-19T01:38:29;16.48;;;8.80;;
31818;SDS011;18384;48.860;9.188;2023-01-19T01:40:55;14.55;;;8.43;;
31818;SDS011;18384;48.860;9.188;2023-01-19T01:43:21;13.65;;;8.30;;
31818;SDS011;18384;48.860;9.188;2023-01-19T01:45:47;16.05;;;8.38;;
31818;SDS011;18384;48.860;9.188;2023-01-19T01:48:24;16.92;;;9.30;;
31818;SDS011;18384;48.860;9.188;2023-01-19T01:51:02;18.58;;;8.95;;
31818;SDS011;18384;48.860;9.188;2023-01-19T01:53:58;14.45;;;8.70;;
31818;SDS011;18384;48.860;9.188;2023-01-19T01:56:37;19.55;;;8.13;;
31818;SDS011;18384;48.860;9.188;2023-01-19T01:59:08;17.10;;;9.18;;
31818;SDS011;18384;48.860;9.188;2023-01-19T02:01:51;18.52;;;9.23;;
31818;SDS011;18384;48.860;9.188;2023-01-19T02:04:38;16.35;;;8.93;;
31818;SDS011;18384;48.860;9.188;2023-01-19T02:07:13;18.90;;;8.32;;
31818;SDS011;18384;48.860;9.188;2023-01-19T02:12:54;11.10;;;7.60;;
31818;SDS011;18384;48.860;9.188;2023-01-19T02:15:39;15.30;;;8.50;;
31818;SDS011;18384;48.860;9.188;2023-01-19T02:18:05;16.58;;;8.23;;
31818;SDS011;18384;48.860;9.188;2023-01-19T02:20:31;14.95;;;9.15;;
31818;SDS011;18384;48.860;9.188;2023-01-19T02:23:02;16.33;;;8.77;;
31818;SDS011;18384;48.860;9.188;2023-01-19T02:25:36;16.95;;;8.85;;
31818;SDS011;18384;48.860;9.188;2023-01-19T02:28:04;12.80;;;8.57;;
31818;SDS011;18384;48.860;9.188;2023-01-19T02:30:31;15.43;;;8.07;;
31818;SDS011;18384;48.860;9.188;2023-01-19T02:33:00;14.87;;;9.07;;
31818;SDS011;18384;48.860;9.188;2023-01-19T02:35:26;14.70;;;8.98;;
31818;SDS011;18384;48.860;9.188;2023-01-19T02:37:52;11.50;;;7.85;;
31818;SDS011;18384;48.860;9.188;2023-01-19T02:40:19;15.95;;;8.52;;
31818;SDS011;18384;48.860;9.188;2023-01-19T02:42:48;14.43;;;7.57;;
31818;SDS011;18384;48.860;9.188;2023-01-19T02:45:19;13.90;;;8.30;;
31818;SDS011;18384;48.860;9.188;2023-01-19T02:47:48;15.45;;;8.85;;
31818;SDS011;18384;48.860;9.188;2023-01-19T02:50:38;15.93;;;8.52;;
31818;SDS011;18384;48.860;9.188;2023-01-19T02:53:20;14.07;;;8.40;;
31818;SDS011;18384;48.860;9.188;2023-01-19T03:08:55;14.82;;;8.05;;
31818;SDS011;18384;48.860;9.188;2023-01-19T03:12:21;15.88;;;8.13;;
31818;SDS011;18384;48.860;9.188;2023-01-19T03:15:00;18.77;;;8.02;;
31818;SDS011;18384;48.860;9.188;2023-01-19T03:17:40;13.13;;;8.05;;
31818;SDS011;18384;48.860;9.188;2023-01-19T03:20:09;12.27;;;8.27;;
31818;SDS011;18384;48.860;9.188;2023-01-19T03:22:38;15.40;;;7.65;;
31818;SDS011;18384;48.860;9.188;2023-01-19T03:25:06;11.15;;;7.32;;
31818;SDS011;18384;48.860;9.188;2023-01-19T03:27:34;13.82;;;7.90;;
31818;SDS011;18384;48.860;9.188;2023-01-19T03:30:10;15.10;;;8.40;;
31818;SDS011;18384;48.860;9.188;2023-01-19T03:32:53;15.23;;;8.35;;
31818;SDS011;18384;48.860;9.188;2023-01-19T03:35:34;14.45;;;8.73;;
31818;SDS011;18384;48.860;9.188;2023-01-19T03:38:06;14.98;;;8.85;;
31818;SDS011;18384;48.860;9.188;2023-01-19T03:40:40;16.17;;;8.10;;
31818;SDS011;18384;48.860;9.188;2023-01-19T03:43:07;15.43;;;8.27;;
31818;SDS011;18384;48.860;9.188;2023-01-19T03:45:35;15.55;;;8.70;;
31818;SDS011;18384;48.860;9.188;2023-01-19T03:48:03;13.85;;;8.32;;
31818;SDS011;18384;48.860;9.188;2023-01-19T03:50:30;14.73;;;8.02;;
31818;SDS011;18384;48.860;9.188;2023-01-19T03:53:00;14.00;;;8.65;;
31818;SDS011;18384;48.860;9.188;2023-01-19T03:55:41;16.45;;;8.63;;
31818;SDS011;18384;48.860;9.188;2023-01-19T03:58:11;15.85;;;8.43;;
31818;SDS011;18384;48.860;9.188;2023-01-19T04:00:37;11.85;;;7.35;;
31818;SDS011;18384;48.860;9.188;2023-01-19T04:03:05;14.13;;;8.02;;
31818;SDS011;18384;48.860;9.188;2023-01-19T04:05:37;15.05;;;8.82;;
31818;SDS011;18384;48.860;9.188;2023-01-19T04:08:04;15.82;;;8.30;;
31818;SDS011;18384;48.860;9.188;2023-01-19T04:10:30;14.25;;;8.30;;
31818;SDS011;18384;48.860;9.188;2023-01-19T04:12:57;15.18;;;8.57;;
31818;SDS011;18384;48.860;9.188;2023-01-19T04:15:25;13.13;;;7.80;;
31818;SDS011;18384;48.860;9.188;2023-01-19T04:17:51;16.00;;;8.98;;
31818;SDS011;18384;48.860;9.188;2023-01-19T04:20:17;17.55;;;8.35;;
31818;SDS011;18384;48.860;9.188;2023-01-19T04:22:44;14.38;;;8.70;;
31818;SDS011;18384;48.860;9.188;2023-01-19T04:25:10;17.12;;;9.13;;
31818;SDS011;18384;48.860;9.188;2023-01-19T04:27:36;13.93;;;8.38;;
31818;SDS011;18384;48.860;9.188;2023-01-19T04:30:03;14.35;;;7.97;;
31818;SDS011;18384;48.860;9.188;2023-01-19T04:32:31;16.98;;;9.05;;
31818;SDS011;18384;48.860;9.188;2023-01-19T04:34:57;17.62;;;9.30;;
31818;SDS011;18384;48.860;9.188;2023-01-19T04:39:49;14.52;;;8.60;;
31818;SDS011;18384;48.860;9.188;2023-01-19T04:42:16;16.90;;;9.50;;
31818;SDS011;18384;48.860;9.188;2023-01-19T04:44:42;14.75;;;8.48;;
31818;SDS011;18384;48.860;9.188;2023-01-19T04:47:08;14.27;;;8.10;;
31818;SDS011;18384;48.860;9.188;2023-01-19T04:49:34;14.38;;;9.07;;
31818;SDS011;18384;48.860;9.188;2023-01-19T04:52:02;14.93;;;8.95;;
31818;SDS011;18384;48.860;9.188;2023-01-19T04:54:29;16.52;;;8.77;;
31818;SDS011;18384;48.860;9.188;2023-01-19T04:56:56;17.10;;;7.97;;
31818;SDS011;18384;48.860;9.188;2023-01-19T04:59:22;16.98;;;9.25;;
31818;SDS011;18384;48.860;9.188;2023-01-19T05:04:14;15.23;;;7.22;;
31818;SDS011;18384;48.860;9.188;2023-01-19T05:09:06;16.02;;;7.85;;
31818;SDS011;18384;48.860;9.188;2023-01-19T05:11:36;14.23;;;8.70;;
31818;SDS011;18384;48.860;9.188;2023-01-19T05:14:02;13.40;;;7.35;;
31818;SDS011;18384;48.860;9.188;2023-01-19T05:16:28;14.87;;;8.13;;
31818;SDS011;18384;48.860;9.188;2023-01-19T05:18:54;15.77;;;8.73;;
31818;SDS011;18384;48.860;9.188;2023-01-19T05:21:21;12.70;;;8.32;;
31818;SDS011;18384;48.860;9.188;2023-01-19T05:23:47;15.98;;;8.13;;
31818;SDS011;18384;48.860;9.188;2023-01-19T05:26:13;18.05;;;9.23;;
31818;SDS011;18384;48.860;9.188;2023-01-19T05:28:39;15.35;;;8.48;;
31818;SDS011;18384;48.860;9.188;2023-01-19T05:31:05;14.38;;;8.23;;
31818;SDS011;18384;48.860;9.188;2023-01-19T05:35:57;15.88;;;8.30;;
31818;SDS011;18384;48.860;9.188;2023-01-19T05:38:23;14.93;;;8.60;;
31818;SDS011;18384;48.860;9.188;2023-01-19T05:40:54;16.92;;;9.10;;
31818;SDS011;18384;48.860;9.188;2023-01-19T05:43:22;18.35;;;9.38;;
31818;SDS011;18384;48.860;9.188;2023-01-19T05:45:49;21.55;;;9.50;;
31818;SDS011;18384;48.860;9.188;2023-01-19T05:48:16;16.08;;;9.07;;
31818;SDS011;18384;48.860;9.188;2023-01-19T05:50:42;19.73;;;9.60;;
31818;SDS011;18384;48.860;9.188;2023-01-19T05:53:08;18.67;;;9.48;;
31818;SDS011;18384;48.860;9.188;2023-01-19T05:55:34;17.33;;;8.70;;
31818;SDS011;18384;48.860;9.188;2023-01-19T05:58:00;18.80;;;9.57;;
31818;SDS011;18384;48.860;9.188;2023-01-19T06:00:26;16.83;;;9.05;;
31818;SDS011;18384;48.860;9.188;2023-01-19T06:02:53;15.43;;;8.52;;
31818;SDS011;18384;48.860;9.188;2023-01-19T06:05:19;14.85;;;8.57;;
31818;SDS011;18384;48.860;9.188;2023-01-19T06:07:45;15.98;;;8.50;;
31818;SDS011;18384;48.860;9.188;2023-01-19T06:10:11;13.77;;;8.13;;
31818;SDS011;18384;48.860;9.188;2023-01-19T06:12:38;14.52;;;8.32;;
31818;SDS011;18384;48.860;9.188;2023-01-19T06:15:05;12.25;;;8.05;;
31818;SDS011;18384;48.860;9.188;2023-01-19T06:17:32;13.20;;;7.20;;
31818;SDS011;18384;48.860;9.188;2023-01-19T06:19:58;15.05;;;8.23;;
31818;SDS011;18384;48.860;9.188;2023-01-19T06:22:24;12.93;;;8.43;;
31818;SDS011;18384;48.860;9.188;2023-01-19T06:24:50;12.90;;;8.75;;
31818;SDS011;18384;48.860;9.188;2023-01-19T06:27:16;17.48;;;9.18;;
31818;SDS011;18384;48.860;9.188;2023-01-19T06:29:43;12.77;;;8.02;;
31818;SDS011;18384;48.860;9.188;2023-01-19T06:32:09;13.18;;;8.30;;
31818;SDS011;18384;48.860;9.188;2023-01-19T06:34:35;13.30;;;9.18;;
31818;SDS011;18384;48.860;9.188;2023-01-19T06:37:01;17.58;;;8.75;;
31818;SDS011;18384;48.860;9.188;2023-01-19T06:39:28;18.60;;;8.85;;
31818;SDS011;18384;48.860;9.188;2023-01-19T06:41:54;16.60;;;9.73;;
31818;SDS011;18384;48.860;9.188;2023-01-19T06:44:20;25.37;;;9.93;;
31818;SDS011;18384;48.860;9.188;2023-01-19T06:46:46;18.85;;;11.20;;
31818;SDS011;18384;48.860;9.188;2023-01-19T06:49:13;20.05;;;9.82;;
31818;SDS011;18384;48.860;9.188;2023-01-19T06:51:39;21.70;;;10.35;;
31818;SDS011;18384;48.860;9.188;2023-01-19T06:54:05;21.45;;;10.10;;
31818;SDS011;18384;48.860;9.188;2023-01-19T06:56:31;18.80;;;9.60;;
31818;SDS011;18384;48.860;9.188;2023-01-19T06:58:57;18.52;;;11.48;;
31818;SDS011;18384;48.860;9.188;2023-01-19T07:01:23;22.27;;;10.43;;
31818;SDS011;18384;48.860;9.188;2023-01-19T07:03:50;16.40;;;10.55;;
31818;SDS011;18384;48.860;9.188;2023-01-19T07:06:17;24.05;;;11.02;;
31818;SDS011;18384;48.860;9.188;2023-01-19T07:08:43;21.12;;;11.55;;
31818;SDS011;18384;48.860;9.188;2023-01-19T07:11:10;21.15;;;11.93;;
31818;SDS011;18384;48.860;9.188;2023-01-19T07:13:37;16.00;;;9.63;;
31818;SDS011;18384;48.860;9.188;2023-01-19T07:16:05;18.52;;;10.80;;
31818;SDS011;18384;48.860;9.188;2023-01-19T07:18:36;18.73;;;10.65;;
31818;SDS011;18384;48.860;9.188;2023-01-19T07:21:04;14.45;;;9.77;;
31818;SDS011;18384;48.860;9.188;2023-01-19T07:23:31;16.50;;;9.43;;
31818;SDS011;18384;48.860;9.188;2023-01-19T07:25:58;13.82;;;8.85;;
31818;SDS011;18384;48.860;9.188;2023-01-19T07:28:26;18.20;;;9.77;;
31818;SDS011;18384;48.860;9.188;2023-01-19T07:30:53;18.60;;;9.80;;
31818;SDS011;18384;48.860;9.188;2023-01-19T07:33:20;14.35;;;9.15;;
31818;SDS011;18384;48.860;9.188;2023-01-19T07:35:47;14.93;;;8.63;;
31818;SDS011;18384;48.860;9.188;2023-01-19T07:38:15;20.15;;;9.43;;
31818;SDS011;18384;48.860;9.188;2023-01-19T07:40:43;15.35;;;8.73;;
31818;SDS011;18384;48.860;9.188;2023-01-19T07:43:11;15.40;;;8.95;;
31818;SDS011;18384;48.860;9.188;2023-01-19T07:45:38;18.55;;;9.45;;
31818;SDS011;18384;48.860;9.188;2023-01-19T07:48:04;18.95;;;9.77;;
31818;SDS011;18384;48.860;9.188;2023-01-19T07:50:30;19.52;;;10.27;;
31818;SDS011;18384;48.860;9.188;2023-01-19T07:53:02;17.87;;;10.23;;
31818;SDS011;18384;48.860;9.188;2023-01-19T07:55:33;27.50;;;12.25;;
31818;SDS011;18384;48.860;9.188;2023-01-19T07:57:59;26.10;;;13.23;;
31818;SDS011;18384;48.860;9.188;2023-01-19T08:00:28;21.50;;;12.73;;
31818;SDS011;18384;48.860;9.188;2023-01-19T08:02:57;21.87;;;11.73;;
31818;SDS011;18384;48.860;9.188;2023-01-19T08:05:24;20.83;;;11.30;;
31818;SDS011;18384;48.860;9.188;2023-01-19T08:07:51;16.37;;;10.90;;
31818;SDS011;18384;48.860;9.188;2023-01-19T08:10:18;22.40;;;11.20;;
31818;SDS011;18384;48.860;9.188;2023-01-19T08:12:47;20.67;;;10.65;;
31818;SDS011;18384;48.860;9.188;2023-01-19T08:15:13;33.15;;;11.35;;
31818;SDS011;18384;48.860;9.188;2023-01-19T08:17:39;40.78;;;12.18;;
31818;SDS011;18384;48.860;9.188;2023-01-19T08:20:06;21.85;;;11.38;;
31818;SDS011;18384;48.860;9.188;2023-01-19T08:22:35;19.80;;;11.25;;
31818;SDS011;18384;48.860;9.188;2023-01-19T08:25:02;24.12;;;12.25;;
31818;SDS011;18384;48.860;9.188;2023-01-19T08:27:28;28.40;;;13.20;;
31818;SDS011;18384;48.860;9.188;2023-01-19T08:29:55;25.08;;;13.25;;
31818;SDS011;18384;48.860;9.188;2023-01-19T08:32:23;25.37;;;12.13;;
31818;SDS011;18384;48.860;9.188;2023-01-19T08:34:49;29.70;;;12.10;;
31818;SDS011;18384;48.860;9.188;2023-01-19T08:37:15;21.05;;;11.82;;
31818;SDS011;18384;48.860;9.188;2023-01-19T08:39:41;20.70;;;10.80;;
31818;SDS011;18384;48.860;9.188;2023-01-19T08:42:07;18.92;;;9.20;;
31818;SDS011;18384;48.860;9.188;2023-01-19T08:44:33;16.58;;;9.52;;
31818;SDS011;18384;48.860;9.188;2023-01-19T08:46:59;13.98;;;8.05;;
31818;SDS011;18384;48.860;9.188;2023-01-19T08:49:25;13.65;;;7.82;;
31818;SDS011;18384;48.860;9.188;2023-01-19T08:51:52;14.10;;;8.45;;
31818;SDS011;18384;48.860;9.188;2023-01-19T08:54:18;23.73;;;9.20;;
31818;SDS011;18384;48.860;9.188;2023-01-19T08:56:45;16.02;;;8.07;;
31818;SDS011;18384;48.860;9.188;2023-01-19T08:59:12;18.83;;;8.45;;
31818;SDS011;18384;48.860;9.188;2023-01-19T09:01:38;20.00;;;8.73;;
31818;SDS011;18384;48.860;9.188;2023-01-19T09:04:05;17.90;;;8.70;;
31818;SDS011;18384;48.860;9.188;2023-01-19T09:06:31;14.23;;;7.93;;
31818;SDS011;18384;48.860;9.188;2023-01-19T09:08:58;16.37;;;7.87;;
31818;SDS011;18384;48.860;9.188;2023-01-19T09:13:51;12.98;;;6.57;;
31818;SDS011;18384;48.860;9.188;2023-01-19T09:16:17;13.48;;;7.25;;
31818;SDS011;18384;48.860;9.188;2023-01-19T09:18:43;13.13;;;6.87;;
31818;SDS011;18384;48.860;9.188;2023-01-19T09:21:10;13.85;;;6.30;;
31818;SDS011;18384;48.860;9.188;2023-01-19T09:23:36;12.30;;;6.85;;
31818;SDS011;18384;48.860;9.188;2023-01-19T09:26:03;11.98;;;6.55;;
31818;SDS011;18384;48.860;9.188;2023-01-19T09:28:30;11.48;;;6.60;;
31818;SDS011;18384;48.860;9.188;2023-01-19T09:30:57;17.48;;;6.72;;
31818;SDS011;18384;48.860;9.188;2023-01-19T09:33:23;10.63;;;5.75;;
31818;SDS011;18384;48.860;9.188;2023-01-19T09:35:49;12.07;;;6.35;;
31818;SDS011;18384;48.860;9.188;2023-01-19T09:38:18;12.45;;;6.37;;
31818;SDS011;18384;48.860;9.188;2023-01-19T09:40:48;13.70;;;6.45;;
31818;SDS011;18384;48.860;9.188;2023-01-19T09:47:12;12.85;;;6.47;;
31818;SDS011;18384;48.860;9.188;2023-01-19T09:49:43;9.00;;;5.57;;
31818;SDS011;18384;48.860;9.188;2023-01-19T09:52:16;9.65;;;5.07;;
31818;SDS011;18384;48.860;9.188;2023-01-19T09:54:45;11.85;;;4.80;;
31818;SDS011;18384;48.860;9.188;2023-01-19T09:57:18;6.45;;;4.82;;
31818;SDS011;18384;48.860;9.188;2023-01-19T09:59:47;9.77;;;4.70;;
31818;SDS011;18384;48.860;9.188;2023-01-19T10:02:39;12.68;;;5.80;;
31818;SDS011;18384;48.860;9.188;2023-01-19T10:05:57;11.35;;;5.20;;
31818;SDS011;18384;48.860;9.188;2023-01-19T10:08:43;11.80;;;6.22;;
31818;SDS011;18384;48.860;9.188;2023-01-19T10:11:44;11.07;;;5.40;;
31818;SDS011;18384;48.860;9.188;2023-01-19T10:14:27;9.25;;;4.85;;
31818;SDS011;18384;48.860;9.188;2023-01-19T10:17:18;12.35;;;6.07;;
31818;SDS011;18384;48.860;9.188;2023-01-19T10:20:22;10.15;;;5.45;;
31818;SDS011;18384;48.860;9.188;2023-01-19T10:22:54;13.13;;;6.03;;
31818;SDS011;18384;48.860;9.188;2023-01-19T10:25:23;14.43;;;7.12;;
31818;SDS011;18384;48.860;9.188;2023-01-19T10:27:49;13.18;;;7.12;;
31818;SDS011;18384;48.860;9.188;2023-01-19T10:30:22;14.95;;;7.15;;
31818;SDS011;18384;48.860;9.188;2023-01-19T10:32:53;14.30;;;6.05;;
31818;SDS011;18384;48.860;9.188;2023-01-19T10:35:20;10.40;;;5.85;;
31818;SDS011;18384;48.860;9.188;2023-01-19T10:37:53;12.50;;;5.62;;
31818;SDS011;18384;48.860;9.188;2023-01-19T10:40:30;8.32;;;4.55;;
31818;SDS011;18384;48.860;9.188;2023-01-19T10:46:22;9.13;;;5.35;;
31818;SDS011;18384;48.860;9.188;2023-01-19T10:49:20;10.52;;;5.25;;
31818;SDS011;18384;48.860;9.188;2023-01-19T10:52:04;10.40;;;6.07;;
31818;SDS011;18384;48.860;9.188;2023-01-19T10:54:41;13.05;;;5.37;;
31818;SDS011;18384;48.860;9.188;2023-01-19T10:57:08;10.43;;;5.03;;
31818;SDS011;18384;48.860;9.188;2023-01-19T10:59:47;8.88;;;4.97;;
31818;SDS011;18384;48.860;9.188;2023-01-19T11:02:19;8.25;;;5.25;;
31818;SDS011;18384;48.860;9.188;2023-01-19T11:05:01;12.93;;;5.05;;
31818;SDS011;18384;48.860;9.188;2023-01-19T11:07:54;9.13;;;5.40;;
31818;SDS011;18384;48.860;9.188;2023-01-19T11:12:59;8.00;;;4.57;;
31818;SDS011;18384;48.860;9.188;2023-01-19T11:15:41;9.68;;;3.62;;
31818;SDS011;18384;48.860;9.188;2023-01-19T11:18:22;10.55;;;4.60;;
31818;SDS011;18384;48.860;9.188;2023-01-19T11:21:03;9.68;;;3.80;;
31818;SDS011;18384;48.860;9.188;2023-01-19T11:23:38;8.68;;;4.03;;
31818;SDS011;18384;48.860;9.188;2023-01-19T11:26:24;9.60;;;3.62;;
31818;SDS011;18384;48.860;9.188;2023-01-19T11:28:55;6.68;;;4.20;;
31818;SDS011;18384;48.860;9.188;2023-01-19T11:31:31;12.63;;;4.95;;
31818;SDS011;18384;48.860;9.188;2023-01-19T11:34:00;7.82;;;4.18;;
31818;SDS011;18384;48.860;9.188;2023-01-19T11:36:35;9.82;;;4.80;;
31818;SDS011;18384;48.860;9.188;2023-01-19T11:42:32;7.72;;;4.60;;
31818;SDS011;18384;48.860;9.188;2023-01-19T11:45:02;9.55;;;4.15;;
31818;SDS011;18384;48.860;9.188;2023-01-19T11:50:20;7.00;;;3.65;;
31818;SDS011;18384;48.860;9.188;2023-01-19T11:53:05;10.63;;;3.92;;
31818;SDS011;18384;48.860;9.188;2023-01-19T11:55:55;5.45;;;3.67;;
31818;SDS011;18384;48.860;9.188;2023-01-19T11:58:46;6.20;;;3.50;;
31818;SDS011;18384;48.860;9.188;2023-01-19T12:01:19;6.70;;;3.80;;
31818;SDS011;18384;48.860;9.188;2023-01-19T12:03:54;8.13;;;3.80;;
31818;SDS011;18384;48.860;9.188;2023-01-19T12:06:39;12.80;;;3.58;;
31818;SDS011;18384;48.860;9.188;2023-01-19T12:09:10;6.45;;;4.15;;
31818;SDS011;18384;48.860;9.188;2023-01-19T12:12:08;11.30;;;5.30;;
31818;SDS011;18384;48.860;9.188;2023-01-19T12:15:40;10.30;;;4.87;;
31818;SDS011;18384;48.860;9.188;2023-01-19T12:18:15;6.80;;;3.72;;
31818;SDS011;18384;48.860;9.188;2023-01-19T12:20:51;11.77;;;5.00;;
31818;SDS011;18384;48.860;9.188;2023-01-19T12:27:39;7.32;;;4.07;;
31818;SDS011;18384;48.860;9.188;2023-01-19T12:30:22;11.02;;;3.70;;
31818;SDS011;18384;48.860;9.188;2023-01-19T12:32:51;11.70;;;4.50;;
31818;SDS011;18384;48.860;9.188;2023-01-19T12:36:33;8.80;;;4.82;;
31818;SDS011;18384;48.860;9.188;2023-01-19T12:39:08;7.15;;;4.55;;
31818;SDS011;18384;48.860;9.188;2023-01-19T12:41:42;9.13;;;5.32;;
31818;SDS011;18384;48.860;9.188;2023-01-19T12:44:13;11.15;;;5.40;;
31818;SDS011;18384;48.860;9.188;2023-01-19T12:46:45;12.05;;;5.65;;
31818;SDS011;18384;48.860;9.188;2023-01-19T12:52:39;10.73;;;6.07;;
31818;SDS011;18384;48.860;9.188;2023-01-19T12:55:22;11.77;;;5.97;;
31818;SDS011;18384;48.860;9.188;2023-01-19T12:58:11;15.50;;;6.25;;
31818;SDS011;18384;48.860;9.188;2023-01-19T13:00:43;16.08;;;7.00;;
31818;SDS011;18384;48.860;9.188;2023-01-19T13:03:58;16.25;;;5.90;;
31818;SDS011;18384;48.860;9.188;2023-01-19T13:07:04;9.98;;;5.72;;
31818;SDS011;18384;48.860;9.188;2023-01-19T13:09:35;14.07;;;5.97;;
31818;SDS011;18384;48.860;9.188;2023-01-19T13:12:21;8.80;;;5.37;;
31818;SDS011;18384;48.860;9.188;2023-01-19T13:14:49;11.77;;;5.82;;
31818;SDS011;18384;48.860;9.188;2023-01-19T13:18:00;8.77;;;5.03;;
31818;SDS011;18384;48.860;9.188;2023-01-19T13:20:30;13.93;;;5.25;;
31818;SDS011;18384;48.860;9.188;2023-01-19T13:23:51;8.75;;;5.03;;
31818;SDS011;18384;48.860;9.188;2023-01-19T13:26:24;10.75;;;4.90;;
31818;SDS011;18384;48.860;9.188;2023-01-19T13:28:59;8.77;;;5.18;;
31818;SDS011;18384;48.860;9.188;2023-01-19T13:31:51;11.05;;;4.90;;
31818;SDS011;18384;48.860;9.188;2023-01-19T13:34:21;7.82;;;5.30;;
31818;SDS011;18384;48.860;9.188;2023-01-19T13:36:52;9.88;;;4.70;;
31818;SDS011;18384;48.860;9.188;2023-01-19T13:39:31;7.70;;;4.80;;
31818;SDS011;18384;48.860;9.188;2023-01-19T13:42:04;6.75;;;4.53;;
31818;SDS011;18384;48.860;9.188;2023-01-19T13:45:19;7.70;;;4.12;;
31818;SDS011;18384;48.860;9.188;2023-01-19T13:47:59;8.25;;;4.95;;
31818;SDS011;18384;48.860;9.188;2023-01-19T13:50:32;6.95;;;4.43;;
31818;SDS011;18384;48.860;9.188;2023-01-19T13:53:12;6.05;;;4.30;;
31818;SDS011;18384;48.860;9.188;2023-01-19T13:55:44;9.45;;;4.72;;
31818;SDS011;18384;48.860;9.188;2023-01-19T13:58:21;7.50;;;4.90;;
31818;SDS011;18384;48.860;9.188;2023-01-19T14:00:48;7.95;;;4.75;;
31818;SDS011;18384;48.860;9.188;2023-01-19T14:05:47;13.52;;;5.65;;
31818;SDS011;18384;48.860;9.188;2023-01-19T14:08:16;9.85;;;5.18;;
31818;SDS011;18384;48.860;9.188;2023-01-19T14:14:36;9.63;;;5.53;;
31818;SDS011;18384;48.860;9.188;2023-01-19T14:17:03;8.68;;;4.95;;
31818;SDS011;18384;48.860;9.188;2023-01-19T14:19:29;8.40;;;5.07;;
31818;SDS011;18384;48.860;9.188;2023-01-19T14:22:16;10.45;;;5.25;;
31818;SDS011;18384;48.860;9.188;2023-01-19T14:24:42;15.45;;;6.00;;
31818;SDS011;18384;48.860;9.188;2023-01-19T14:27:14;11.63;;;6.00;;
31818;SDS011;18384;48.860;9.188;2023-01-19T14:29:45;9.65;;;5.55;;
31818;SDS011;18384;48.860;9.188;2023-01-19T14:32:18;9.40;;;5.40;;
31818;SDS011;18384;48.860;9.188;2023-01-19T14:35:34;11.70;;;5.30;;
31818;SDS011;18384;48.860;9.188;2023-01-19T14:38:00;11.35;;;5.10;;
31818;SDS011;18384;48.860;9.188;2023-01-19T14:40:26;9.38;;;5.00;;
31818;SDS011;18384;48.860;9.188;2023-01-19T14:42:54;9.52;;;5.05;;
31818;SDS011;18384;48.860;9.188;2023-01-19T14:45:34;9.00;;;4.32;;
31818;SDS011;18384;48.860;9.188;2023-01-19T14:48:12;8.60;;;4.30;;
31818;SDS011;18384;48.860;9.188;2023-01-19T14:50:42;10.15;;;4.72;;
31818;SDS011;18384;48.860;9.188;2023-01-19T14:53:16;8.30;;;4.32;;
31818;SDS011;18384;48.860;9.188;2023-01-19T14:55:48;7.15;;;4.37;;
31818;SDS011;18384;48.860;9.188;2023-01-19T14:58:21;9.70;;;4.30;;
31818;SDS011;18384;48.860;9.188;2023-01-19T15:00:50;5.60;;;4.00;;
31818;SDS011;18384;48.860;9.188;2023-01-19T15:03:20;9.52;;;4.87;;
31818;SDS011;18384;48.860;9.188;2023-01-19T15:05:51;10.48;;;4.70;;
31818;SDS011;18384;48.860;9.188;2023-01-19T15:08:24;10.07;;;5.12;;
31818;SDS011;18384;48.860;9.188;2023-01-19T15:10:54;9.38;;;4.70;;
31818;SDS011;18384;48.860;9.188;2023-01-19T15:13:22;11.77;;;4.10;;
31818;SDS011;18384;48.860;9.188;2023-01-19T15:15:51;10.00;;;4.12;;
31818;SDS011;18384;48.860;9.188;2023-01-19T15:18:22;9.10;;;4.47;;
31818;SDS011;18384;48.860;9.188;2023-01-19T15:20:51;8.27;;;4.30;;
31818;SDS011;18384;48.860;9.188;2023-01-19T15:23:19;7.28;;;4.95;;
31818;SDS011;18384;48.860;9.188;2023-01-19T15:28:12;11.82;;;5.95;;
31818;SDS011;18384;48.860;9.188;2023-01-19T15:30:41;11.07;;;6.53;;
31818;SDS011;18384;48.860;9.188;2023-01-19T15:33:29;9.63;;;6.32;;
31818;SDS011;18384;48.860;9.188;2023-01-19T15:35:55;11.95;;;5.72;;
31818;SDS011;18384;48.860;9.188;2023-01-19T15:38:21;8.98;;;5.80;;
31818;SDS011;18384;48.860;9.188;2023-01-19T15:40:48;13.95;;;6.68;;
31818;SDS011;18384;48.860;9.188;2023-01-19T15:43:14;11.35;;;6.50;;
31818;SDS011;18384;48.860;9.188;2023-01-19T15:45:52;14.60;;;6.70;;
31818;SDS011;18384;48.860;9.188;2023-01-19T15:48:26;13.80;;;7.70;;
31818;SDS011;18384;48.860;9.188;2023-01-19T15:50:53;19.48;;;6.78;;
31818;SDS011;18384;48.860;9.188;2023-01-19T15:53:20;10.93;;;6.82;;
31818;SDS011;18384;48.860;9.188;2023-01-19T15:55:51;21.77;;;7.75;;
31818;SDS011;18384;48.860;9.188;2023-01-19T15:58:21;19.33;;;6.47;;
31818;SDS011;18384;48.860;9.188;2023-01-19T16:00:55;12.98;;;6.68;;
31818;SDS011;18384;48.860;9.188;2023-01-19T16:03:24;11.55;;;6.62;;
31818;SDS011;18384;48.860;9.188;2023-01-19T16:05:50;13.73;;;6.93;;